Time;durP1;ratioP1;P1;durP2;ratioP2;P2;SDS_P1;SDS_P2;PMS_P1;PMS_P2;Temp;Humidity;BMP_temperature;BMP_pressure;BME280_temperature;BME280_humidity;BME280_pressure;Samples;Min_cycle;Max_cycle;Signal;HPM_P1;HPM_P2
2022/04/16 00:02:07;;;;;;;1.10;0.73;;;11.40;99.90;;;;;;5011190;28;20377;-67
2022/04/16 00:04:33;;;;;;;0.40;0.30;;;11.40;99.90;;;;;;5011386;28;20499;-67
2022/04/16 00:06:59;;;;;;;0.40;0.30;;;11.50;99.90;;;;;;5011090;28;20502;-69
2022/04/16 00:09:25;;;;;;;0.40;0.20;;;11.40;99.90;;;;;;5027086;28;20784;-67
2022/04/16 00:11:51;;;;;;;0.40;0.30;;;11.60;99.90;;;;;;5012113;28;20381;-67
2022/04/16 00:14:19;;;;;;;0.40;0.20;;;11.60;99.90;;;;;;5010989;28;20384;-67
2022/04/16 00:16:45;;;;;;;0.40;0.30;;;11.50;99.90;;;;;;5012001;28;20846;-67
2022/04/16 00:19:11;;;;;;;0.40;0.30;;;11.60;99.90;;;;;;5011416;28;20381;-67
2022/04/16 00:21:37;;;;;;;0.40;0.20;;;11.70;99.90;;;;;;5011846;28;20901;-67
2022/04/16 00:24:04;;;;;;;0.40;0.20;;;11.90;99.90;;;;;;5011302;28;20443;-67
2022/04/16 00:26:29;;;;;;;0.40;0.20;;;12.10;99.90;;;;;;5010979;28;20415;-67
2022/04/16 00:28:57;;;;;;;0.40;0.20;;;12.20;99.90;;;;;;5011704;28;20738;-67
2022/04/16 00:31:23;;;;;;;0.40;0.20;;;12.10;99.90;;;;;;5010969;28;20385;-67
2022/04/16 00:33:48;;;;;;;0.40;0.20;;;12.20;99.90;;;;;;5011499;28;20869;-67
2022/04/16 00:36:15;;;;;;;0.40;0.20;;;12.20;99.90;;;;;;5011366;28;20866;-68
2022/04/16 00:38:42;;;;;;;0.40;0.30;;;12.20;99.90;;;;;;5011101;28;20512;-67
2022/04/16 00:41:08;;;;;;;0.40;0.30;;;12.20;99.90;;;;;;5011640;28;20415;-67
2022/04/16 00:43:34;;;;;;;0.40;0.20;;;12.00;99.90;;;;;;5010702;28;20385;-67
2022/04/16 00:45:59;;;;;;;0.40;0.30;;;11.90;99.90;;;;;;5011444;28;20753;-67
2022/04/16 00:48:25;;;;;;;0.40;0.20;;;11.70;99.90;;;;;;5009512;28;20467;-68
2022/04/16 00:50:54;;;;;;;0.40;0.40;;;11.70;99.90;;;;;;5011410;28;20381;-67
2022/04/16 00:53:21;;;;;;;0.40;0.20;;;11.60;99.90;;;;;;5011145;28;20393;-67
2022/04/16 00:55:47;;;;;;;0.40;0.30;;;11.60;99.90;;;;;;5009145;28;20480;-67
2022/04/16 00:58:13;;;;;;;0.60;0.50;;;11.60;99.90;;;;;;5009720;28;20789;-67
2022/04/16 01:00:38;;;;;;;0.40;0.30;;;11.50;99.90;;;;;;5009177;28;20393;-67
2022/04/16 01:03:05;;;;;;;0.40;0.30;;;11.50;99.90;;;;;;5011133;28;20377;-67
2022/04/16 01:05:31;;;;;;;0.40;0.20;;;11.30;99.90;;;;;;5011360;28;20377;-67
2022/04/16 01:07:58;;;;;;;0.40;0.30;;;11.40;99.90;;;;;;5010398;28;20400;-67
2022/04/16 01:10:29;;;;;;;0.40;0.40;;;11.20;99.90;;;;;;5020770;28;20388;-66
2022/04/16 01:12:59;;;;;;;0.40;0.30;;;11.20;99.90;;;;;;5029966;28;20413;-67
2022/04/16 01:15:27;;;;;;;0.40;0.40;;;11.00;99.90;;;;;;5030601;28;20800;-67
2022/04/16 01:17:54;;;;;;;0.60;0.60;;;11.00;99.90;;;;;;5029670;28;20399;-67
2022/04/16 01:20:20;;;;;;;0.40;0.40;;;11.00;99.90;;;;;;5030608;28;20387;-67
2022/04/16 01:22:47;;;;;;;0.40;0.20;;;10.90;99.90;;;;;;5030671;28;20395;-66
2022/04/16 01:25:13;;;;;;;0.40;0.30;;;10.90;99.90;;;;;;5030186;28;20383;-67
2022/04/16 01:27:43;;;;;;;0.40;0.20;;;10.80;99.90;;;;;;5029419;28;20395;-67
2022/04/16 01:30:11;;;;;;;0.40;0.30;;;10.70;99.90;;;;;;5029662;28;20423;-67
2022/04/16 01:32:37;;;;;;;0.40;0.30;;;10.70;99.90;;;;;;5017680;28;20431;-67
2022/04/16 01:35:05;;;;;;;0.40;0.30;;;10.60;99.90;;;;;;5009937;28;20381;-67
2022/04/16 01:37:34;;;;;;;0.40;0.20;;;10.70;99.90;;;;;;5010595;28;20430;-67
2022/04/16 01:40:00;;;;;;;0.40;0.20;;;10.70;99.90;;;;;;5025068;28;20817;-68
2022/04/16 01:42:29;;;;;;;0.40;0.30;;;10.60;99.90;;;;;;5010540;28;20381;-66
2022/04/16 01:45:01;;;;;;;0.40;0.20;;;10.40;99.90;;;;;;5010796;28;20389;-66
2022/04/16 01:47:28;;;;;;;0.40;0.20;;;10.30;99.90;;;;;;5025527;28;20404;-67
2022/04/16 01:49:55;;;;;;;0.40;0.40;;;10.20;99.90;;;;;;5010790;28;20381;-67
2022/04/16 01:52:23;;;;;;;0.85;0.77;;;10.20;99.90;;;;;;5009774;28;20410;-67
2022/04/16 01:54:49;;;;;;;0.40;0.20;;;10.30;99.90;;;;;;5010314;28;20388;-66
2022/04/16 01:57:18;;;;;;;0.40;0.20;;;10.40;99.90;;;;;;5009649;28;20478;-68
2022/04/16 01:59:45;;;;;;;0.40;0.20;;;10.10;99.90;;;;;;5010551;28;20392;-67
2022/04/16 02:02:11;;;;;;;0.40;0.20;;;10.10;99.90;;;;;;5010661;28;20389;-67
2022/04/16 02:04:36;;;;;;;0.40;0.20;;;10.00;99.90;;;;;;5009738;28;20451;-67
2022/04/16 02:07:02;;;;;;;0.40;0.40;;;10.00;99.90;;;;;;5010332;28;20791;-67
2022/04/16 02:09:28;;;;;;;0.40;0.30;;;10.00;99.90;;;;;;5011684;28;20463;-67
2022/04/16 02:11:53;;;;;;;0.70;0.70;;;9.90;99.90;;;;;;5029908;28;20440;-67
2022/04/16 02:14:21;;;;;;;0.40;0.20;;;9.80;99.90;;;;;;5030106;28;20553;-67
2022/04/16 02:16:47;;;;;;;0.40;0.20;;;9.80;99.90;;;;;;5029286;28;20390;-67
2022/04/16 02:19:14;;;;;;;0.40;0.30;;;9.70;99.90;;;;;;5029999;28;20396;-67
2022/04/16 02:21:41;;;;;;;0.40;0.30;;;9.70;99.90;;;;;;5028350;28;20797;-67
2022/04/16 02:24:06;;;;;;;0.50;0.50;;;9.70;99.90;;;;;;5037008;28;20385;-67
2022/04/16 02:26:32;;;;;;;0.40;0.30;;;9.80;99.90;;;;;;5011206;28;20381;-67
2022/04/16 02:28:59;;;;;;;0.40;0.20;;;9.80;99.90;;;;;;5012957;28;20388;-67
2022/04/16 02:31:26;;;;;;;0.57;0.40;;;9.80;99.90;;;;;;5013807;28;20403;-66
2022/04/16 02:33:51;;;;;;;0.40;0.40;;;9.70;99.90;;;;;;5012975;28;20410;-67
2022/04/16 02:36:19;;;;;;;0.50;0.40;;;9.60;99.90;;;;;;5013769;28;20467;-66
2022/04/16 02:38:46;;;;;;;1.60;1.00;;;9.60;99.90;;;;;;5013176;28;20420;-67
2022/04/16 02:41:12;;;;;;;0.40;0.20;;;9.60;99.90;;;;;;5013260;28;21086;-66
2022/04/16 02:43:38;;;;;;;0.40;0.20;;;9.50;99.90;;;;;;5013823;28;20476;-66
2022/04/16 02:48:48;;;;;;;0.40;0.20;;;9.40;99.90;;;;;;5013407;28;20427;-67
2022/04/16 02:51:14;;;;;;;0.40;0.20;;;9.40;99.90;;;;;;5012534;28;20392;-66
2022/04/16 02:53:39;;;;;;;0.40;0.20;;;9.30;99.90;;;;;;5013815;28;20896;-66
2022/04/16 02:56:05;;;;;;;0.40;0.20;;;9.30;99.90;;;;;;5013226;28;20900;-68
2022/04/16 02:58:30;;;;;;;0.40;0.20;;;9.40;99.90;;;;;;5012864;28;20409;-66
2022/04/16 03:00:56;;;;;;;0.40;0.20;;;9.40;99.90;;;;;;5013191;28;20443;-66
2022/04/16 03:03:22;;;;;;;0.40;0.20;;;9.40;99.90;;;;;;5012485;28;20389;-67
2022/04/16 03:05:48;;;;;;;0.40;0.20;;;9.20;99.90;;;;;;5013137;28;20377;-67
2022/04/16 03:08:15;;;;;;;0.40;0.28;;;9.20;99.90;;;;;;5028564;28;20981;-66
2022/04/16 03:10:41;;;;;;;0.40;0.20;;;9.10;99.90;;;;;;5024328;28;20395;-67
2022/04/16 03:13:07;;;;;;;1.08;1.05;;;9.10;99.90;;;;;;5048329;28;20391;-67
2022/04/16 03:18:18;;;;;;;0.40;0.20;;;9.20;99.90;;;;;;5012791;28;20942;-66
2022/04/16 03:20:44;;;;;;;0.40;0.30;;;9.10;99.90;;;;;;5012299;28;20376;-67
2022/04/16 03:23:10;;;;;;;0.40;0.30;;;9.00;99.90;;;;;;5013100;28;20399;-67
2022/04/16 03:25:46;;;;;;;0.40;0.20;;;8.80;99.90;;;;;;5012183;28;20428;-67
2022/04/16 03:28:12;;;;;;;0.80;0.70;;;8.90;99.90;;;;;;5013053;28;20502;-66
2022/04/16 03:30:38;;;;;;;0.40;0.20;;;8.80;99.90;;;;;;5012504;28;20547;-67
2022/04/16 03:33:04;;;;;;;0.82;0.82;;;8.90;99.90;;;;;;5008889;28;20416;-67
2022/04/16 03:35:30;;;;;;;0.40;0.20;;;9.00;99.90;;;;;;5012856;28;20438;-66
2022/04/16 03:37:56;;;;;;;0.40;0.20;;;9.10;99.90;;;;;;5011929;28;20540;-67
2022/04/16 03:40:26;;;;;;;0.40;0.30;;;8.90;99.90;;;;;;5012691;28;20897;-67
2022/04/16 03:42:56;;;;;;;0.40;0.40;;;8.90;99.90;;;;;;5012980;28;20393;-67
2022/04/16 03:45:32;;;;;;;0.50;0.50;;;8.90;99.90;;;;;;5012733;28;20456;-67
2022/04/16 03:48:00;;;;;;;0.40;0.20;;;9.00;99.90;;;;;;5011557;28;20456;-68
2022/04/16 03:50:28;;;;;;;0.40;0.20;;;9.20;99.90;;;;;;5012429;28;20399;-67
2022/04/16 03:52:55;;;;;;;0.60;0.60;;;8.90;99.90;;;;;;5012789;28;20766;-67
2022/04/16 04:00:53;;;;;;;0.40;0.30;;;8.70;99.90;;;;;;4992691;28;20381;-67
2022/04/16 04:03:20;;;;;;;0.40;0.27;;;8.60;99.90;;;;;;4991932;28;20429;-67
2022/04/16 04:05:48;;;;;;;0.40;0.20;;;8.70;99.90;;;;;;4992697;28;20390;-67
2022/04/16 04:08:14;;;;;;;0.40;0.20;;;8.80;99.90;;;;;;4992555;28;20764;-67
2022/04/16 04:10:40;;;;;;;0.40;0.30;;;8.80;99.90;;;;;;5015033;28;20454;-67
2022/04/16 04:13:06;;;;;;;0.40;0.22;;;8.70;99.90;;;;;;5031892;28;20874;-67
2022/04/16 04:15:31;;;;;;;0.40;0.30;;;8.50;99.90;;;;;;5046577;28;20387;-67
2022/04/16 04:18:01;;;;;;;0.40;0.30;;;8.40;99.90;;;;;;5031868;28;20399;-67
2022/04/16 04:20:28;;;;;;;0.40;0.30;;;8.40;99.90;;;;;;5032238;28;20390;-66
2022/04/16 04:22:54;;;;;;;0.40;0.30;;;8.50;99.90;;;;;;5013425;28;20495;-67
2022/04/16 04:25:20;;;;;;;0.40;0.20;;;8.40;99.90;;;;;;5012485;28;20861;-67
2022/04/16 04:27:46;;;;;;;0.40;0.20;;;8.30;99.90;;;;;;5011583;28;20789;-67
2022/04/16 04:30:12;;;;;;;0.50;0.50;;;8.20;99.90;;;;;;5012187;28;20412;-66
2022/04/16 04:32:38;;;;;;;0.40;0.20;;;8.20;99.90;;;;;;5011695;28;20515;-66
2022/04/16 04:35:06;;;;;;;0.40;0.20;;;8.30;99.90;;;;;;5026353;28;20524;-67
2022/04/16 04:37:32;;;;;;;0.40;0.20;;;8.10;99.90;;;;;;5012010;28;20427;-66
2022/04/16 04:39:58;;;;;;;0.40;0.30;;;8.10;99.90;;;;;;5011045;28;20769;-67
2022/04/16 04:42:24;;;;;;;0.40;0.30;;;8.20;99.90;;;;;;5027088;28;20432;-67
2022/04/16 04:44:50;;;;;;;0.50;0.38;;;8.10;99.90;;;;;;5011918;28;20385;-67
2022/04/16 04:47:16;;;;;;;0.40;0.30;;;8.10;99.90;;;;;;5010993;28;20386;-67
2022/04/16 04:49:41;;;;;;;0.40;0.30;;;8.10;99.90;;;;;;5011249;28;20795;-67
2022/04/16 04:52:07;;;;;;;0.40;0.30;;;8.10;99.90;;;;;;5010876;28;20895;-67
2022/04/16 04:54:33;;;;;;;0.50;0.50;;;8.20;99.90;;;;;;5027079;28;20409;-67
2022/04/16 04:56:58;;;;;;;0.40;0.20;;;8.10;99.90;;;;;;5011538;28;20413;-66
2022/04/16 04:59:24;;;;;;;0.40;0.20;;;8.10;99.90;;;;;;5010974;28;20671;-67
2022/04/16 05:01:50;;;;;;;0.40;0.20;;;8.00;99.90;;;;;;5011437;28;20381;-67
2022/04/16 05:04:16;;;;;;;0.40;0.20;;;8.00;99.90;;;;;;5026578;28;20435;-67
2022/04/16 05:06:42;;;;;;;0.70;0.50;;;8.00;99.90;;;;;;5011208;28;20400;-67
2022/04/16 05:09:08;;;;;;;0.40;0.20;;;7.90;99.90;;;;;;5011560;28;20880;-67
2022/04/16 05:11:33;;;;;;;0.40;0.40;;;8.10;99.90;;;;;;5029742;28;20876;-67
2022/04/16 05:13:59;;;;;;;0.40;0.20;;;8.00;99.90;;;;;;5030843;28;20717;-67
2022/04/16 05:16:24;;;;;;;0.40;0.20;;;8.10;99.90;;;;;;5031322;28;20395;-66
2022/04/16 05:18:50;;;;;;;0.40;0.20;;;8.10;99.90;;;;;;5030314;28;20411;-67
2022/04/16 05:21:16;;;;;;;0.40;0.20;;;8.20;99.90;;;;;;5030955;28;20419;-67
2022/04/16 05:23:41;;;;;;;0.40;0.20;;;8.20;99.90;;;;;;5030073;28;20380;-67
2022/04/16 05:26:08;;;;;;;0.40;0.30;;;8.40;99.90;;;;;;5019212;28;20381;-67
2022/04/16 05:28:34;;;;;;;0.50;0.50;;;8.50;99.90;;;;;;5011475;28;20388;-67
2022/04/16 05:31:02;;;;;;;0.40;0.30;;;8.60;99.90;;;;;;5008484;28;20399;-67
2022/04/16 05:36:11;;;;;;;0.40;0.30;;;8.80;99.90;;;;;;5010761;28;20387;-67
2022/04/16 05:38:37;;;;;;;0.40;0.30;;;8.90;99.90;;;;;;5010693;28;20432;-67
2022/04/16 05:41:03;;;;;;;0.40;0.20;;;8.70;99.90;;;;;;5010201;28;20831;-67
2022/04/16 05:43:29;;;;;;;0.40;0.20;;;8.80;99.90;;;;;;5011158;28;20384;-67
2022/04/16 05:45:54;;;;;;;0.40;0.30;;;8.80;99.90;;;;;;5010562;28;20393;-67
2022/04/16 05:48:20;;;;;;;0.40;0.20;;;8.80;99.90;;;;;;5010396;28;20446;-67
2022/04/16 05:50:46;;;;;;;0.40;0.20;;;8.90;99.90;;;;;;5010761;28;20385;-67
2022/04/16 05:53:14;;;;;;;0.40;0.20;;;9.10;99.90;;;;;;5010188;28;20385;-68
2022/04/16 05:55:45;;;;;;;0.40;0.20;;;9.20;99.90;;;;;;5010947;28;20418;-67
2022/04/16 05:58:11;;;;;;;0.40;0.30;;;9.30;99.90;;;;;;5010096;28;20404;-67
2022/04/16 06:00:37;;;;;;;0.40;0.30;;;9.30;99.90;;;;;;5010931;28;20420;-67
2022/04/16 06:03:04;;;;;;;0.40;0.30;;;9.40;99.90;;;;;;5014873;28;20380;-67
2022/04/16 06:05:31;;;;;;;0.40;0.20;;;9.30;99.90;;;;;;5014544;28;20407;-67
2022/04/16 06:07:58;;;;;;;0.50;0.30;;;9.40;99.90;;;;;;5013226;28;20451;-67
2022/04/16 06:10:24;;;;;;;0.40;0.30;;;9.50;99.90;;;;;;5022804;28;20391;-67
2022/04/16 06:12:49;;;;;;;0.40;0.30;;;9.70;99.90;;;;;;5034401;28;20383;-67
2022/04/16 06:15:15;;;;;;;0.40;0.30;;;9.90;99.90;;;;;;5034507;28;20387;-67
2022/04/16 06:17:41;;;;;;;0.40;0.20;;;9.80;99.90;;;;;;5033466;28;21029;-67
2022/04/16 06:20:08;;;;;;;0.40;0.20;;;9.80;99.90;;;;;;5049504;28;20460;-67
2022/04/16 06:22:34;;;;;;;0.40;0.25;;;9.70;99.90;;;;;;5033289;28;20418;-67
2022/04/16 06:25:00;;;;;;;0.40;0.20;;;9.70;99.90;;;;;;5020818;28;20470;-67
2022/04/16 06:27:27;;;;;;;0.40;0.20;;;9.70;99.90;;;;;;5014197;28;20403;-68
2022/04/16 06:29:52;;;;;;;0.40;0.20;;;9.80;99.90;;;;;;5013866;28;20392;-67
2022/04/16 06:32:18;;;;;;;0.40;0.20;;;9.90;99.90;;;;;;5014430;28;20879;-67
2022/04/16 06:34:44;;;;;;;0.40;0.20;;;10.10;99.90;;;;;;5013371;28;20463;-67
2022/04/16 06:37:10;;;;;;;0.40;0.20;;;10.10;99.90;;;;;;5013964;28;20745;-67
2022/04/16 06:39:35;;;;;;;0.40;0.30;;;10.40;99.90;;;;;;5013456;28;20440;-67
2022/04/16 06:42:01;;;;;;;0.40;0.20;;;11.10;99.90;;;;;;5013501;28;20459;-67
2022/04/16 06:44:27;;;;;;;0.40;0.20;;;11.30;99.90;;;;;;5014411;28;20385;-67
2022/04/16 06:46:54;;;;;;;0.50;0.40;;;11.50;99.90;;;;;;5013131;28;20480;-67
2022/04/16 06:49:20;;;;;;;1.00;0.80;;;11.60;99.90;;;;;;5013991;28;20381;-67
2022/04/16 06:51:46;;;;;;;0.40;0.30;;;11.60;99.90;;;;;;5013352;28;20381;-68
2022/04/16 06:54:12;;;;;;;0.40;0.20;;;11.70;99.90;;;;;;5012539;28;20471;-67
2022/04/16 06:56:38;;;;;;;0.40;0.30;;;11.80;99.90;;;;;;5013901;28;20880;-67
2022/04/16 06:59:04;;;;;;;0.40;0.30;;;11.90;99.90;;;;;;5012990;28;20751;-67
2022/04/16 07:01:30;;;;;;;0.70;0.70;;;11.90;99.90;;;;;;5013807;28;20395;-67
2022/04/16 07:03:56;;;;;;;0.40;0.30;;;12.00;99.90;;;;;;5013260;28;20385;-67
2022/04/16 07:06:21;;;;;;;0.40;0.40;;;12.10;99.90;;;;;;5013648;28;20410;-67
2022/04/16 07:08:47;;;;;;;0.40;0.20;;;12.00;99.90;;;;;;5012293;28;20393;-67
2022/04/16 07:11:13;;;;;;;0.40;0.20;;;12.00;99.90;;;;;;5028752;28;20387;-67
2022/04/16 07:13:38;;;;;;;0.40;0.20;;;12.00;99.90;;;;;;5032276;28;20398;-67
2022/04/16 07:16:04;;;;;;;0.40;0.30;;;12.10;99.90;;;;;;5021439;28;20383;-68
2022/04/16 07:18:30;;;;;;;0.40;0.20;;;12.10;99.90;;;;;;5029956;28;20418;-67
2022/04/16 07:20:56;;;;;;;0.60;0.60;;;12.20;99.90;;;;;;5033549;28;20806;-67
2022/04/16 07:23:22;;;;;;;0.70;0.70;;;12.20;99.90;;;;;;5032473;28;20395;-67
2022/04/16 07:25:47;;;;;;;0.40;0.22;;;12.30;99.90;;;;;;5048631;28;20735;-68
2022/04/16 07:28:21;;;;;;;0.40;0.20;;;12.40;99.90;;;;;;5032692;28;20387;-68
2022/04/16 07:30:53;;;;;;;0.40;0.20;;;12.40;99.90;;;;;;5033143;28;20474;-66
2022/04/16 07:33:19;;;;;;;0.40;0.30;;;12.50;99.90;;;;;;5001002;28;20401;-67
2022/04/16 07:35:45;;;;;;;0.40;0.20;;;12.50;99.90;;;;;;5013069;28;20732;-67
2022/04/16 07:38:11;;;;;;;0.40;0.30;;;12.50;99.90;;;;;;5012502;28;20432;-67
2022/04/16 07:40:37;;;;;;;0.40;0.20;;;12.70;99.90;;;;;;4993947;28;20375;-67
2022/04/16 07:43:03;;;;;;;2.30;1.40;;;12.60;99.90;;;;;;4993102;28;20417;-66
2022/04/16 07:45:29;;;;;;;0.40;0.30;;;12.70;99.90;;;;;;4992625;28;20379;-67
2022/04/16 07:47:55;;;;;;;0.40;0.20;;;12.70;99.90;;;;;;5010243;28;20802;-67
2022/04/16 07:50:21;;;;;;;0.40;0.20;;;12.70;99.90;;;;;;5028193;28;20393;-66
2022/04/16 07:52:47;;;;;;;0.40;0.30;;;12.80;99.90;;;;;;5011615;28;20413;-67
2022/04/16 07:55:13;;;;;;;0.40;0.20;;;12.70;99.90;;;;;;5011381;28;20762;-67
2022/04/16 07:57:39;;;;;;;0.40;0.30;;;12.60;99.70;;;;;;5012023;28;20865;-67
2022/04/16 08:00:06;;;;;;;0.40;0.30;;;12.70;99.90;;;;;;5012624;28;20442;-66
2022/04/16 08:02:32;;;;;;;1.30;0.50;;;12.80;99.80;;;;;;5012460;28;20381;-67
2022/04/16 08:04:58;;;;;;;0.40;0.20;;;12.90;98.20;;;;;;5001337;28;20499;-67
2022/04/16 08:07:24;;;;;;;0.40;0.40;;;12.90;97.50;;;;;;4993327;28;20422;-67
2022/04/16 08:09:50;;;;;;;0.40;0.40;;;13.00;98.40;;;;;;4992498;28;20732;-67
2022/04/16 08:12:16;;;;;;;0.40;0.20;;;13.00;97.70;;;;;;4992762;28;20406;-66
2022/04/16 08:14:42;;;;;;;0.40;0.30;;;12.90;97.50;;;;;;4991471;28;20474;-67
2022/04/16 08:17:08;;;;;;;0.40;0.20;;;12.80;97.70;;;;;;4992162;28;20473;-67
2022/04/16 08:19:34;;;;;;;0.40;0.20;;;13.10;97.60;;;;;;4992646;28;20481;-66
2022/04/16 08:21:59;;;;;;;0.40;0.30;;;13.30;97.00;;;;;;4991823;28;20381;-67
2022/04/16 08:26:57;;;;;;;0.80;0.50;;;13.40;95.90;;;;;;4991769;28;20431;-68
2022/04/16 08:29:23;;;;;;;1.40;0.70;;;13.30;95.00;;;;;;4992242;28;20386;-67
2022/04/16 08:31:50;;;;;;;0.40;0.20;;;13.40;95.50;;;;;;4992440;28;20390;-67
2022/04/16 08:34:15;;;;;;;0.40;0.20;;;13.40;94.70;;;;;;4991612;28;20493;-68
2022/04/16 08:36:41;;;;;;;0.40;0.20;;;13.50;94.40;;;;;;4992089;28;20500;-67
2022/04/16 08:39:07;;;;;;;0.40;0.20;;;13.60;94.20;;;;;;4989847;28;20751;-68
2022/04/16 08:41:33;;;;;;;0.80;0.60;;;13.60;94.30;;;;;;4992043;28;20382;-67
2022/04/16 08:43:58;;;;;;;0.40;0.30;;;13.90;93.40;;;;;;4992334;28;20379;-66
2022/04/16 08:46:28;;;;;;;0.40;0.30;;;13.80;94.50;;;;;;4991796;28;20466;-67
2022/04/16 08:48:55;;;;;;;0.40;0.30;;;13.90;94.10;;;;;;5003408;28;20415;-67
2022/04/16 08:51:20;;;;;;;0.40;0.20;;;13.90;93.20;;;;;;5025963;28;20769;-67
2022/04/16 08:53:46;;;;;;;0.40;0.30;;;14.10;93.20;;;;;;5011711;28;20385;-66
2022/04/16 08:56:12;;;;;;;0.40;0.30;;;14.10;92.60;;;;;;5026546;28;20445;-66
2022/04/16 08:58:38;;;;;;;0.40;0.30;;;14.00;92.60;;;;;;5010070;28;20408;-66
2022/04/16 09:01:04;;;;;;;0.40;0.20;;;14.10;93.10;;;;;;5011208;28;20389;-66
2022/04/16 09:03:34;;;;;;;0.40;0.30;;;14.30;93.00;;;;;;5010279;28;20892;-67
2022/04/16 09:06:00;;;;;;;1.20;0.90;;;14.30;92.90;;;;;;5011051;28;20416;-67
2022/04/16 09:08:30;;;;;;;0.40;0.20;;;14.60;92.30;;;;;;5009959;28;20381;-68
2022/04/16 09:11:06;;;;;;;0.40;0.30;;;14.70;90.90;;;;;;5010450;28;20385;-67
2022/04/16 09:13:32;;;;;;;0.90;0.50;;;14.80;90.90;;;;;;5010037;28;20482;-67
2022/04/16 09:16:05;;;;;;;0.40;0.20;;;15.00;90.90;;;;;;5011331;28;20467;-67
2022/04/16 09:18:32;;;;;;;0.40;0.20;;;14.60;89.30;;;;;;5010117;28;20746;-67
2022/04/16 09:20:58;;;;;;;0.40;0.30;;;14.50;90.50;;;;;;5011336;28;20479;-67
2022/04/16 09:23:25;;;;;;;0.40;0.30;;;14.90;91.50;;;;;;5010973;28;20454;-67
2022/04/16 09:25:51;;;;;;;0.40;0.20;;;15.10;87.80;;;;;;5025519;28;20936;-68
2022/04/16 09:28:19;;;;;;;0.40;0.30;;;15.30;88.30;;;;;;5011300;28;20460;-67
2022/04/16 09:30:52;;;;;;;0.40;0.20;;;15.60;88.20;;;;;;5010367;28;20389;-68
2022/04/16 09:33:19;;;;;;;0.40;0.30;;;15.70;85.30;;;;;;5010986;28;20380;-67
2022/04/16 09:35:46;;;;;;;0.40;0.30;;;15.90;86.30;;;;;;5010017;28;20380;-67
2022/04/16 09:38:12;;;;;;;0.40;0.30;;;16.10;86.20;;;;;;5011021;28;20420;-67
2022/04/16 09:40:38;;;;;;;0.40;0.20;;;16.20;88.80;;;;;;5011120;28;20458;-67
2022/04/16 09:43:06;;;;;;;0.40;0.20;;;16.30;84.40;;;;;;5010625;28;20762;-67
2022/04/16 09:45:32;;;;;;;0.40;0.20;;;16.60;82.20;;;;;;5011095;28;20384;-67
2022/04/16 09:47:59;;;;;;;0.40;0.20;;;16.50;83.10;;;;;;5007639;28;20393;-67
2022/04/16 09:50:26;;;;;;;0.40;0.20;;;16.50;82.80;;;;;;5008667;28;20393;-67
2022/04/16 09:52:55;;;;;;;0.40;0.30;;;16.70;81.00;;;;;;5009843;28;20384;-67
2022/04/16 09:55:23;;;;;;;0.40;0.20;;;16.40;80.50;;;;;;5007759;28;20393;-67
2022/04/16 09:58:11;;;;;;;0.40;0.30;;;16.50;83.30;;;;;;5008816;28;20421;-68
2022/04/16 10:00:38;;;;;;;0.40;0.20;;;16.40;81.00;;;;;;5008681;28;20393;-67
2022/04/16 10:03:07;;;;;;;0.40;0.40;;;16.10;79.70;;;;;;5009826;28;20397;-67
2022/04/16 10:05:34;;;;;;;0.40;0.20;;;16.10;80.80;;;;;;5006902;28;20805;-67
2022/04/16 10:08:00;;;;;;;0.40;0.20;;;16.40;80.60;;;;;;5004202;28;20444;-67
2022/04/16 10:10:30;;;;;;;0.40;0.20;;;16.40;82.80;;;;;;5001883;28;20450;-67
2022/04/16 10:12:59;;;;;;;0.40;0.20;;;16.50;79.80;;;;;;5008083;28;20426;-67
2022/04/16 10:15:33;;;;;;;0.40;0.20;;;16.90;79.50;;;;;;5009716;28;20388;-67
2022/04/16 10:17:58;;;;;;;0.40;0.20;;;16.80;77.10;;;;;;5010933;28;20408;-66
2022/04/16 10:20:25;;;;;;;0.40;0.20;;;17.00;75.90;;;;;;5006548;28;20408;-67
2022/04/16 10:22:54;;;;;;;0.40;0.20;;;16.90;75.40;;;;;;5005082;28;20392;-67
2022/04/16 10:25:40;;;;;;;0.40;0.30;;;16.70;75.20;;;;;;5002240;28;20408;-67
2022/04/16 10:28:08;;;;;;;0.40;0.30;;;16.70;74.50;;;;;;5008189;28;20419;-66
2022/04/16 10:30:40;;;;;;;0.40;0.30;;;16.50;75.20;;;;;;5019173;28;20382;-66
2022/04/16 10:33:22;;;;;;;0.55;0.43;;;16.60;76.40;;;;;;5016645;28;20403;-66
2022/04/16 10:35:54;;;;;;;1.00;0.80;;;16.60;76.70;;;;;;5017432;28;20455;-66
2022/04/16 10:38:37;;;;;;;0.40;0.22;;;16.80;72.80;;;;;;5015894;28;20436;-66
2022/04/16 10:41:13;;;;;;;0.40;0.20;;;16.90;72.50;;;;;;5012756;28;20488;-67
2022/04/16 10:43:39;;;;;;;0.40;0.20;;;16.90;72.00;;;;;;5012438;28;20389;-67
2022/04/16 10:46:07;;;;;;;0.40;0.30;;;16.70;69.70;;;;;;5019556;28;20404;-67
2022/04/16 10:48:44;;;;;;;1.40;0.80;;;16.80;69.50;;;;;;5027083;28;20478;-67
2022/04/16 10:51:09;;;;;;;0.40;0.30;;;16.70;68.70;;;;;;5033606;28;20728;-67
2022/04/16 10:53:37;;;;;;;0.40;0.20;;;16.80;69.60;;;;;;5032969;28;20381;-67
2022/04/16 10:56:14;;;;;;;0.40;0.20;;;17.10;69.20;;;;;;5048829;28;20440;-67
2022/04/16 10:58:41;;;;;;;0.40;0.28;;;17.40;68.20;;;;;;5032771;28;20453;-67
2022/04/16 11:01:09;;;;;;;0.40;0.20;;;17.20;65.30;;;;;;5033502;28;20386;-67
2022/04/16 11:03:44;;;;;;;0.40;0.20;;;17.40;67.20;;;;;;5033551;28;20828;-67
2022/04/16 11:06:10;;;;;;;0.40;0.20;;;17.50;67.20;;;;;;5033406;28;20433;-67
2022/04/16 11:08:40;;;;;;;0.40;0.20;;;17.20;66.20;;;;;;5033592;28;20894;-67
2022/04/16 11:11:06;;;;;;;0.40;0.30;;;17.40;68.10;;;;;;5012101;28;20404;-67
2022/04/16 11:13:37;;;;;;;0.40;0.30;;;17.50;67.90;;;;;;5012662;28;20392;-66
2022/04/16 11:16:04;;;;;;;0.40;0.20;;;17.80;67.60;;;;;;5011874;28;20381;-67
2022/04/16 11:18:43;;;;;;;0.40;0.20;;;17.80;63.60;;;;;;5013168;28;20575;-67
2022/04/16 11:21:13;;;;;;;0.40;0.40;;;18.20;63.60;;;;;;5012375;28;20400;-67
2022/04/16 11:23:43;;;;;;;0.40;0.20;;;17.90;60.50;;;;;;5013270;28;20385;-67
2022/04/16 11:34:32;;;;;;;0.40;0.20;;;18.60;58.30;;;;;;5013207;28;20376;-66
2022/04/16 11:36:59;;;;;;;0.40;0.20;;;19.10;56.90;;;;;;5007658;28;20409;-66
2022/04/16 11:39:34;;;;;;;0.50;0.50;;;19.20;57.80;;;;;;5007435;28;20428;-67
2022/04/16 11:42:07;;;;;;;0.40;0.30;;;20.40;58.00;;;;;;5005894;28;21663;-67
2022/04/16 11:44:44;;;;;;;0.40;0.20;;;20.90;55.90;;;;;;5006336;28;20417;-67
2022/04/16 11:47:20;;;;;;;0.40;0.30;;;20.20;53.60;;;;;;5007311;28;20400;-68
2022/04/16 11:50:01;;;;;;;0.40;0.30;;;20.60;53.90;;;;;;5012225;28;20397;-67
2022/04/16 11:52:29;;;;;;;0.40;0.20;;;20.10;52.50;;;;;;5003280;28;20773;-67
2022/04/16 11:55:21;;;;;;;0.40;0.20;;;20.80;52.90;;;;;;5012862;28;20727;-67
2022/04/16 11:57:49;;;;;;;0.40;0.25;;;20.30;51.70;;;;;;5012253;28;20423;-67
2022/04/16 12:00:19;;;;;;;0.40;0.20;;;20.80;53.30;;;;;;4995088;28;20466;-67
2022/04/16 12:02:47;;;;;;;0.40;0.30;;;20.90;54.80;;;;;;5003579;28;20398;-67
2022/04/16 12:05:15;;;;;;;0.40;0.30;;;21.90;54.50;;;;;;5012347;28;20399;-67
2022/04/16 12:07:47;;;;;;;0.40;0.20;;;22.30;52.10;;;;;;5011967;28;20428;-67
2022/04/16 12:10:15;;;;;;;0.40;0.20;;;22.20;50.70;;;;;;5035942;28;20460;-66
2022/04/16 12:12:49;;;;;;;0.40;0.20;;;22.30;50.70;;;;;;5012662;28;20397;-67
2022/04/16 12:15:25;;;;;;;0.40;0.20;;;22.50;49.80;;;;;;4995785;28;20390;-67
2022/04/16 12:17:53;;;;;;;1.10;0.80;;;20.60;50.30;;;;;;5000519;28;20408;-67
2022/04/16 12:20:20;;;;;;;0.40;0.20;;;20.90;49.20;;;;;;5012236;28;20392;-67
2022/04/16 12:22:48;;;;;;;0.40;0.20;;;20.80;50.20;;;;;;5011397;28;20389;-67
2022/04/16 12:25:19;;;;;;;0.40;0.20;;;21.60;49.40;;;;;;5011883;28;20389;-67
2022/04/16 12:27:56;;;;;;;0.40;0.30;;;22.10;49.50;;;;;;5019619;28;20397;-67
2022/04/16 12:30:31;;;;;;;0.40;0.20;;;22.30;50.40;;;;;;5011138;28;20384;-67
2022/04/16 12:33:01;;;;;;;0.40;0.20;;;22.00;49.90;;;;;;5011114;28;20385;-67
2022/04/16 12:35:29;;;;;;;0.40;0.30;;;22.00;49.00;;;;;;5012060;28;20889;-67
2022/04/16 12:37:56;;;;;;;0.40;0.30;;;22.10;50.50;;;;;;5011276;28;20424;-67
2022/04/16 12:40:23;;;;;;;0.40;0.20;;;22.00;50.20;;;;;;5012113;28;20471;-67
2022/04/16 12:42:50;;;;;;;0.40;0.20;;;21.40;47.90;;;;;;5007314;28;20788;-68
2022/04/16 12:45:16;;;;;;;0.40;0.20;;;21.50;50.00;;;;;;5010481;28;20393;-67
2022/04/16 12:47:42;;;;;;;0.43;0.37;;;21.00;48.30;;;;;;5011677;28;20869;-67
2022/04/16 12:50:09;;;;;;;0.40;0.20;;;21.50;50.10;;;;;;5007977;28;20476;-67
2022/04/16 12:52:35;;;;;;;0.40;0.20;;;21.60;49.50;;;;;;5011615;28;20400;-66
2022/04/16 12:55:02;;;;;;;0.40;0.25;;;20.90;50.90;;;;;;5008028;28;20428;-67
2022/04/16 12:57:28;;;;;;;0.40;0.20;;;20.90;48.10;;;;;;4991861;28;20391;-67
2022/04/16 12:59:54;;;;;;;0.40;0.20;;;21.00;49.80;;;;;;4999396;28;20382;-67
2022/04/16 13:02:19;;;;;;;0.40;0.20;;;21.70;52.50;;;;;;5010711;28;20381;-67
2022/04/16 13:04:45;;;;;;;0.40;0.25;;;21.40;51.60;;;;;;5010949;28;20515;-67
2022/04/16 13:07:11;;;;;;;0.40;0.20;;;21.30;50.20;;;;;;5010364;28;20474;-67
2022/04/16 13:09:36;;;;;;;0.70;0.50;;;20.70;50.40;;;;;;5013477;28;20395;-67
2022/04/16 13:12:03;;;;;;;0.40;0.30;;;20.60;50.80;;;;;;4999049;28;20399;-67
2022/04/16 13:14:28;;;;;;;0.40;0.20;;;20.90;50.10;;;;;;4991071;28;20382;-68
2022/04/16 13:16:55;;;;;;;0.40;0.20;;;20.90;53.10;;;;;;4991716;28;20394;-67